sensor_id;sensor_type;location;lat;lon;timestamp;P1;durP1;ratioP1;P2;durP2;ratioP2
23078;SDS011;11707;50.830;4.364;2023-02-01T00:01:38;31.00;;;15.80;;
23078;SDS011;11707;50.830;4.364;2023-02-01T00:04:03;31.58;;;15.25;;
23078;SDS011;11707;50.830;4.364;2023-02-01T00:06:29;39.58;;;16.17;;
23078;SDS011;11707;50.830;4.364;2023-02-01T00:08:55;35.03;;;16.23;;
23078;SDS011;11707;50.830;4.364;2023-02-01T00:11:22;32.03;;;15.48;;
23078;SDS011;11707;50.830;4.364;2023-02-01T00:13:49;35.70;;;15.48;;
23078;SDS011;11707;50.830;4.364;2023-02-01T00:16:19;31.83;;;14.70;;
23078;SDS011;11707;50.830;4.364;2023-02-01T00:18:47;37.67;;;15.45;;
23078;SDS011;11707;50.830;4.364;2023-02-01T00:21:15;41.67;;;17.35;;
23078;SDS011;11707;50.830;4.364;2023-02-01T00:23:42;35.15;;;16.35;;
23078;SDS011;11707;50.830;4.364;2023-02-01T00:26:15;37.58;;;15.25;;
23078;SDS011;11707;50.830;4.364;2023-02-01T00:28:44;33.95;;;15.98;;
23078;SDS011;11707;50.830;4.364;2023-02-01T00:31:10;34.35;;;17.70;;
23078;SDS011;11707;50.830;4.364;2023-02-01T00:33:36;29.83;;;14.95;;
23078;SDS011;11707;50.830;4.364;2023-02-01T00:36:03;39.60;;;15.45;;
23078;SDS011;11707;50.830;4.364;2023-02-01T00:38:31;22.65;;;13.38;;
23078;SDS011;11707;50.830;4.364;2023-02-01T00:41:07;30.65;;;13.73;;
23078;SDS011;11707;50.830;4.364;2023-02-01T00:43:36;35.72;;;13.48;;
23078;SDS011;11707;50.830;4.364;2023-02-01T00:46:02;33.00;;;14.05;;
23078;SDS011;11707;50.830;4.364;2023-02-01T00:48:28;24.35;;;12.32;;
23078;SDS011;11707;50.830;4.364;2023-02-01T00:50:54;30.15;;;12.77;;
23078;SDS011;11707;50.830;4.364;2023-02-01T00:53:23;27.25;;;12.18;;
23078;SDS011;11707;50.830;4.364;2023-02-01T00:55:49;24.05;;;11.35;;
23078;SDS011;11707;50.830;4.364;2023-02-01T00:58:14;22.23;;;11.02;;
23078;SDS011;11707;50.830;4.364;2023-02-01T01:00:40;24.65;;;10.90;;
23078;SDS011;11707;50.830;4.364;2023-02-01T01:03:06;24.48;;;9.40;;
23078;SDS011;11707;50.830;4.364;2023-02-01T01:05:48;31.92;;;10.95;;
23078;SDS011;11707;50.830;4.364;2023-02-01T01:08:15;28.58;;;10.52;;
23078;SDS011;11707;50.830;4.364;2023-02-01T01:10:41;18.02;;;9.43;;
23078;SDS011;11707;50.830;4.364;2023-02-01T01:13:07;21.08;;;7.80;;
23078;SDS011;11707;50.830;4.364;2023-02-01T01:15:40;21.80;;;8.52;;
23078;SDS011;11707;50.830;4.364;2023-02-01T01:18:06;25.92;;;8.48;;
23078;SDS011;11707;50.830;4.364;2023-02-01T01:20:37;23.08;;;7.85;;
23078;SDS011;11707;50.830;4.364;2023-02-01T01:23:04;19.85;;;7.63;;
23078;SDS011;11707;50.830;4.364;2023-02-01T01:25:31;20.33;;;6.80;;
23078;SDS011;11707;50.830;4.364;2023-02-01T01:27:56;24.63;;;7.70;;
23078;SDS011;11707;50.830;4.364;2023-02-01T01:30:22;20.65;;;6.93;;
23078;SDS011;11707;50.830;4.364;2023-02-01T01:32:48;22.15;;;6.30;;
23078;SDS011;11707;50.830;4.364;2023-02-01T01:35:14;17.55;;;4.85;;
23078;SDS011;11707;50.830;4.364;2023-02-01T01:37:40;21.83;;;5.05;;
23078;SDS011;11707;50.830;4.364;2023-02-01T01:40:08;22.05;;;6.25;;
23078;SDS011;11707;50.830;4.364;2023-02-01T01:42:40;22.27;;;5.30;;
23078;SDS011;11707;50.830;4.364;2023-02-01T01:45:18;16.58;;;5.32;;
23078;SDS011;11707;50.830;4.364;2023-02-01T01:47:48;21.45;;;4.43;;
23078;SDS011;11707;50.830;4.364;2023-02-01T01:50:25;17.15;;;4.55;;
23078;SDS011;11707;50.830;4.364;2023-02-01T01:53:20;15.75;;;5.30;;
23078;SDS011;11707;50.830;4.364;2023-02-01T01:55:53;27.67;;;5.03;;
23078;SDS011;11707;50.830;4.364;2023-02-01T01:58:22;16.20;;;4.07;;
23078;SDS011;11707;50.830;4.364;2023-02-01T02:00:51;18.20;;;4.50;;
23078;SDS011;11707;50.830;4.364;2023-02-01T02:03:19;20.15;;;4.60;;
23078;SDS011;11707;50.830;4.364;2023-02-01T02:05:49;13.82;;;3.28;;
23078;SDS011;11707;50.830;4.364;2023-02-01T02:08:17;17.70;;;3.90;;
23078;SDS011;11707;50.830;4.364;2023-02-01T02:10:45;17.70;;;4.70;;
23078;SDS011;11707;50.830;4.364;2023-02-01T02:13:35;20.92;;;3.47;;
23078;SDS011;11707;50.830;4.364;2023-02-01T02:19:00;14.93;;;3.95;;
23078;SDS011;11707;50.830;4.364;2023-02-01T02:39:48;18.58;;;4.10;;
23078;SDS011;11707;50.830;4.364;2023-02-01T02:44:57;11.38;;;4.05;;
23078;SDS011;11707;50.830;4.364;2023-02-01T02:53:11;22.45;;;3.90;;
23078;SDS011;11707;50.830;4.364;2023-02-01T02:56:00;14.10;;;3.63;;
23078;SDS011;11707;50.830;4.364;2023-02-01T02:58:46;21.50;;;4.57;;
23078;SDS011;11707;50.830;4.364;2023-02-01T03:01:31;16.90;;;4.28;;
23078;SDS011;11707;50.830;4.364;2023-02-01T03:04:16;17.50;;;4.10;;
23078;SDS011;11707;50.830;4.364;2023-02-01T03:06:46;22.38;;;4.15;;
23078;SDS011;11707;50.830;4.364;2023-02-01T03:11:58;16.17;;;3.92;;
23078;SDS011;11707;50.830;4.364;2023-02-01T03:14:48;13.95;;;4.32;;
23078;SDS011;11707;50.830;4.364;2023-02-01T03:17:21;25.03;;;3.80;;
23078;SDS011;11707;50.830;4.364;2023-02-01T03:19:52;15.97;;;4.87;;
23078;SDS011;11707;50.830;4.364;2023-02-01T03:22:21;21.02;;;4.45;;
23078;SDS011;11707;50.830;4.364;2023-02-01T03:32:18;22.95;;;4.28;;
23078;SDS011;11707;50.830;4.364;2023-02-01T03:34:45;18.70;;;4.03;;
23078;SDS011;11707;50.830;4.364;2023-02-01T03:37:12;15.77;;;4.55;;
23078;SDS011;11707;50.830;4.364;2023-02-01T03:39:52;18.27;;;3.83;;
23078;SDS011;11707;50.830;4.364;2023-02-01T03:42:30;16.38;;;4.03;;
23078;SDS011;11707;50.830;4.364;2023-02-01T03:45:19;20.50;;;4.22;;
23078;SDS011;11707;50.830;4.364;2023-02-01T03:47:52;35.28;;;4.30;;
23078;SDS011;11707;50.830;4.364;2023-02-01T03:50:21;20.88;;;4.07;;
23078;SDS011;11707;50.830;4.364;2023-02-01T03:55:25;14.05;;;3.47;;
23078;SDS011;11707;50.830;4.364;2023-02-01T03:58:14;16.95;;;3.30;;
23078;SDS011;11707;50.830;4.364;2023-02-01T04:00:43;13.38;;;3.45;;
23078;SDS011;11707;50.830;4.364;2023-02-01T04:03:19;18.77;;;3.20;;
23078;SDS011;11707;50.830;4.364;2023-02-01T04:05:47;20.73;;;4.65;;
23078;SDS011;11707;50.830;4.364;2023-02-01T04:08:13;18.67;;;3.90;;
23078;SDS011;11707;50.830;4.364;2023-02-01T04:10:39;16.92;;;3.50;;
23078;SDS011;11707;50.830;4.364;2023-02-01T04:13:05;28.08;;;4.68;;
23078;SDS011;11707;50.830;4.364;2023-02-01T04:15:30;21.98;;;3.97;;
23078;SDS011;11707;50.830;4.364;2023-02-01T04:17:56;16.45;;;3.80;;
23078;SDS011;11707;50.830;4.364;2023-02-01T04:20:22;26.70;;;5.80;;
23078;SDS011;11707;50.830;4.364;2023-02-01T04:22:48;21.65;;;4.22;;
23078;SDS011;11707;50.830;4.364;2023-02-01T04:25:13;14.30;;;3.78;;
23078;SDS011;11707;50.830;4.364;2023-02-01T04:27:39;29.17;;;5.30;;
23078;SDS011;11707;50.830;4.364;2023-02-01T04:30:05;18.25;;;4.45;;
23078;SDS011;11707;50.830;4.364;2023-02-01T04:32:34;17.33;;;3.70;;
23078;SDS011;11707;50.830;4.364;2023-02-01T04:35:01;15.95;;;3.00;;
23078;SDS011;11707;50.830;4.364;2023-02-01T04:37:27;18.88;;;4.93;;
23078;SDS011;11707;50.830;4.364;2023-02-01T04:39:53;20.63;;;4.30;;
23078;SDS011;11707;50.830;4.364;2023-02-01T04:42:19;19.33;;;3.58;;
23078;SDS011;11707;50.830;4.364;2023-02-01T04:44:45;17.65;;;5.32;;
23078;SDS011;11707;50.830;4.364;2023-02-01T04:47:11;16.75;;;4.55;;
23078;SDS011;11707;50.830;4.364;2023-02-01T04:49:36;16.45;;;3.58;;
23078;SDS011;11707;50.830;4.364;2023-02-01T04:52:02;15.75;;;3.95;;
23078;SDS011;11707;50.830;4.364;2023-02-01T04:54:28;21.67;;;4.80;;
23078;SDS011;11707;50.830;4.364;2023-02-01T04:56:54;14.82;;;3.60;;
23078;SDS011;11707;50.830;4.364;2023-02-01T04:59:20;27.15;;;4.55;;
23078;SDS011;11707;50.830;4.364;2023-02-01T05:01:46;13.90;;;3.50;;
23078;SDS011;11707;50.830;4.364;2023-02-01T05:04:11;28.08;;;4.45;;
23078;SDS011;11707;50.830;4.364;2023-02-01T05:06:37;26.10;;;4.05;;
23078;SDS011;11707;50.830;4.364;2023-02-01T05:09:03;25.45;;;4.45;;
23078;SDS011;11707;50.830;4.364;2023-02-01T05:11:28;21.52;;;4.78;;
23078;SDS011;11707;50.830;4.364;2023-02-01T05:14:13;17.45;;;3.63;;
23078;SDS011;11707;50.830;4.364;2023-02-01T05:16:38;21.98;;;3.80;;
23078;SDS011;11707;50.830;4.364;2023-02-01T05:19:04;14.77;;;4.35;;
23078;SDS011;11707;50.830;4.364;2023-02-01T05:21:30;15.93;;;4.10;;
23078;SDS011;11707;50.830;4.364;2023-02-01T05:23:55;18.70;;;4.55;;
23078;SDS011;11707;50.830;4.364;2023-02-01T05:26:44;16.35;;;3.90;;
23078;SDS011;11707;50.830;4.364;2023-02-01T05:29:11;22.25;;;3.95;;
23078;SDS011;11707;50.830;4.364;2023-02-01T05:31:37;20.63;;;4.63;;
23078;SDS011;11707;50.830;4.364;2023-02-01T05:34:03;17.08;;;3.67;;
23078;SDS011;11707;50.830;4.364;2023-02-01T05:36:29;19.77;;;3.63;;
23078;SDS011;11707;50.830;4.364;2023-02-01T05:38:55;17.17;;;4.10;;
23078;SDS011;11707;50.830;4.364;2023-02-01T05:41:21;14.65;;;3.80;;
23078;SDS011;11707;50.830;4.364;2023-02-01T05:43:47;15.60;;;3.83;;
23078;SDS011;11707;50.830;4.364;2023-02-01T05:46:13;22.60;;;5.75;;
23078;SDS011;11707;50.830;4.364;2023-02-01T05:48:39;19.30;;;3.83;;
23078;SDS011;11707;50.830;4.364;2023-02-01T05:51:05;20.75;;;4.43;;
23078;SDS011;11707;50.830;4.364;2023-02-01T05:53:31;17.98;;;5.40;;
23078;SDS011;11707;50.830;4.364;2023-02-01T05:55:57;19.15;;;3.65;;
23078;SDS011;11707;50.830;4.364;2023-02-01T05:58:22;14.13;;;3.78;;
23078;SDS011;11707;50.830;4.364;2023-02-01T06:00:48;12.77;;;4.15;;
23078;SDS011;11707;50.830;4.364;2023-02-01T06:03:14;22.73;;;4.05;;
23078;SDS011;11707;50.830;4.364;2023-02-01T06:05:40;15.88;;;3.50;;
23078;SDS011;11707;50.830;4.364;2023-02-01T06:08:08;18.92;;;3.88;;
23078;SDS011;11707;50.830;4.364;2023-02-01T06:10:34;18.15;;;4.32;;
23078;SDS011;11707;50.830;4.364;2023-02-01T06:12:59;22.55;;;4.38;;
23078;SDS011;11707;50.830;4.364;2023-02-01T06:15:25;24.40;;;4.25;;
23078;SDS011;11707;50.830;4.364;2023-02-01T06:17:51;16.15;;;3.78;;
23078;SDS011;11707;50.830;4.364;2023-02-01T06:20:17;21.52;;;4.43;;
23078;SDS011;11707;50.830;4.364;2023-02-01T06:22:42;23.88;;;4.10;;
23078;SDS011;11707;50.830;4.364;2023-02-01T06:25:09;21.70;;;5.00;;
23078;SDS011;11707;50.830;4.364;2023-02-01T06:27:35;36.47;;;4.82;;
23078;SDS011;11707;50.830;4.364;2023-02-01T06:30:01;17.55;;;4.00;;
23078;SDS011;11707;50.830;4.364;2023-02-01T06:32:28;18.25;;;5.45;;
23078;SDS011;11707;50.830;4.364;2023-02-01T06:34:54;22.80;;;3.65;;
23078;SDS011;11707;50.830;4.364;2023-02-01T06:37:21;18.40;;;3.60;;
23078;SDS011;11707;50.830;4.364;2023-02-01T06:39:48;24.48;;;4.28;;
23078;SDS011;11707;50.830;4.364;2023-02-01T06:42:14;28.15;;;4.93;;
23078;SDS011;11707;50.830;4.364;2023-02-01T06:44:40;24.45;;;4.35;;
23078;SDS011;11707;50.830;4.364;2023-02-01T06:47:06;17.80;;;4.28;;
23078;SDS011;11707;50.830;4.364;2023-02-01T06:49:31;15.77;;;3.03;;
23078;SDS011;11707;50.830;4.364;2023-02-01T06:51:57;22.98;;;4.80;;
23078;SDS011;11707;50.830;4.364;2023-02-01T06:54:25;22.23;;;4.78;;
23078;SDS011;11707;50.830;4.364;2023-02-01T06:56:51;22.58;;;3.90;;
23078;SDS011;11707;50.830;4.364;2023-02-01T06:59:17;22.17;;;4.72;;
23078;SDS011;11707;50.830;4.364;2023-02-01T07:01:43;20.75;;;4.45;;
23078;SDS011;11707;50.830;4.364;2023-02-01T07:04:09;28.25;;;4.60;;
23078;SDS011;11707;50.830;4.364;2023-02-01T07:06:36;28.50;;;4.68;;
23078;SDS011;11707;50.830;4.364;2023-02-01T07:09:02;22.45;;;4.45;;
23078;SDS011;11707;50.830;4.364;2023-02-01T07:38:33;24.92;;;5.43;;
23078;SDS011;11707;50.830;4.364;2023-02-01T07:41:00;24.23;;;5.22;;
23078;SDS011;11707;50.830;4.364;2023-02-01T07:43:27;24.65;;;6.22;;
23078;SDS011;11707;50.830;4.364;2023-02-01T07:45:54;25.50;;;5.30;;
23078;SDS011;11707;50.830;4.364;2023-02-01T07:48:21;20.90;;;5.22;;
23078;SDS011;11707;50.830;4.364;2023-02-01T07:50:47;28.27;;;4.90;;
23078;SDS011;11707;50.830;4.364;2023-02-01T07:53:13;25.38;;;4.82;;
23078;SDS011;11707;50.830;4.364;2023-02-01T07:55:39;13.55;;;3.67;;
23078;SDS011;11707;50.830;4.364;2023-02-01T07:58:05;24.95;;;5.28;;
23078;SDS011;11707;50.830;4.364;2023-02-01T08:00:31;24.05;;;5.55;;
23078;SDS011;11707;50.830;4.364;2023-02-01T08:03:15;36.65;;;5.30;;
23078;SDS011;11707;50.830;4.364;2023-02-01T08:05:41;22.60;;;4.32;;
23078;SDS011;11707;50.830;4.364;2023-02-01T08:08:07;29.42;;;5.03;;
23078;SDS011;11707;50.830;4.364;2023-02-01T08:10:33;24.20;;;4.82;;
23078;SDS011;11707;50.830;4.364;2023-02-01T08:13:00;18.08;;;5.00;;
23078;SDS011;11707;50.830;4.364;2023-02-01T08:15:27;24.10;;;4.45;;
23078;SDS011;11707;50.830;4.364;2023-02-01T08:17:54;18.15;;;4.63;;
23078;SDS011;11707;50.830;4.364;2023-02-01T08:20:20;26.50;;;5.38;;
23078;SDS011;11707;50.830;4.364;2023-02-01T08:22:51;19.73;;;4.57;;
23078;SDS011;11707;50.830;4.364;2023-02-01T08:25:18;14.40;;;4.32;;
23078;SDS011;11707;50.830;4.364;2023-02-01T08:27:44;21.15;;;3.80;;
23078;SDS011;11707;50.830;4.364;2023-02-01T08:30:10;15.88;;;4.47;;
23078;SDS011;11707;50.830;4.364;2023-02-01T08:32:36;21.70;;;5.57;;
23078;SDS011;11707;50.830;4.364;2023-02-01T08:35:03;21.88;;;3.95;;
23078;SDS011;11707;50.830;4.364;2023-02-01T08:37:29;26.58;;;5.07;;
23078;SDS011;11707;50.830;4.364;2023-02-01T08:39:55;20.60;;;4.05;;
23078;SDS011;11707;50.830;4.364;2023-02-01T08:42:21;29.02;;;4.38;;
23078;SDS011;11707;50.830;4.364;2023-02-01T08:45:27;26.02;;;5.55;;
23078;SDS011;11707;50.830;4.364;2023-02-01T08:47:55;17.65;;;4.55;;
23078;SDS011;11707;50.830;4.364;2023-02-01T08:50:21;22.63;;;5.82;;
23078;SDS011;11707;50.830;4.364;2023-02-01T08:52:48;27.58;;;4.38;;
23078;SDS011;11707;50.830;4.364;2023-02-01T08:55:14;24.23;;;5.40;;
23078;SDS011;11707;50.830;4.364;2023-02-01T08:57:41;20.40;;;4.35;;
23078;SDS011;11707;50.830;4.364;2023-02-01T09:00:08;24.45;;;4.88;;
23078;SDS011;11707;50.830;4.364;2023-02-01T09:02:36;22.67;;;4.68;;
23078;SDS011;11707;50.830;4.364;2023-02-01T09:05:03;15.88;;;4.35;;
23078;SDS011;11707;50.830;4.364;2023-02-01T09:07:29;27.95;;;4.90;;
23078;SDS011;11707;50.830;4.364;2023-02-01T09:09:55;16.75;;;4.25;;
23078;SDS011;11707;50.830;4.364;2023-02-01T09:12:25;22.38;;;5.50;;
23078;SDS011;11707;50.830;4.364;2023-02-01T09:14:50;26.08;;;4.45;;
23078;SDS011;11707;50.830;4.364;2023-02-01T09:17:16;19.65;;;5.03;;
23078;SDS011;11707;50.830;4.364;2023-02-01T09:19:42;22.00;;;4.70;;
23078;SDS011;11707;50.830;4.364;2023-02-01T09:22:07;33.47;;;5.70;;
23078;SDS011;11707;50.830;4.364;2023-02-01T09:24:33;17.40;;;3.88;;
23078;SDS011;11707;50.830;4.364;2023-02-01T09:26:59;19.00;;;4.05;;
23078;SDS011;11707;50.830;4.364;2023-02-01T09:29:25;19.13;;;4.68;;
23078;SDS011;11707;50.830;4.364;2023-02-01T09:31:50;14.05;;;3.45;;
23078;SDS011;11707;50.830;4.364;2023-02-01T09:34:16;26.42;;;5.03;;
23078;SDS011;11707;50.830;4.364;2023-02-01T09:36:42;37.80;;;6.20;;
23078;SDS011;11707;50.830;4.364;2023-02-01T09:39:07;17.73;;;4.20;;
23078;SDS011;11707;50.830;4.364;2023-02-01T09:47:15;21.85;;;5.13;;
23078;SDS011;11707;50.830;4.364;2023-02-01T09:50:04;19.05;;;3.65;;
23078;SDS011;11707;50.830;4.364;2023-02-01T09:52:38;18.45;;;4.43;;
23078;SDS011;11707;50.830;4.364;2023-02-01T09:55:27;20.63;;;5.13;;
23078;SDS011;11707;50.830;4.364;2023-02-01T09:58:03;21.30;;;4.80;;
23078;SDS011;11707;50.830;4.364;2023-02-01T10:00:37;26.98;;;4.88;;
23078;SDS011;11707;50.830;4.364;2023-02-01T10:03:04;17.45;;;3.60;;
23078;SDS011;11707;50.830;4.364;2023-02-01T10:08:09;21.52;;;4.55;;
23078;SDS011;11707;50.830;4.364;2023-02-01T10:10:56;16.00;;;3.95;;
23078;SDS011;11707;50.830;4.364;2023-02-01T10:13:51;19.75;;;4.43;;
23078;SDS011;11707;50.830;4.364;2023-02-01T10:16:49;20.17;;;4.60;;
23078;SDS011;11707;50.830;4.364;2023-02-01T10:24:37;19.23;;;3.70;;
23078;SDS011;11707;50.830;4.364;2023-02-01T10:27:19;13.43;;;3.78;;
23078;SDS011;11707;50.830;4.364;2023-02-01T10:29:52;20.92;;;3.58;;
23078;SDS011;11707;50.830;4.364;2023-02-01T10:32:39;16.52;;;4.00;;
23078;SDS011;11707;50.830;4.364;2023-02-01T10:35:16;24.23;;;3.55;;
23078;SDS011;11707;50.830;4.364;2023-02-01T10:37:46;13.57;;;3.13;;
23078;SDS011;11707;50.830;4.364;2023-02-01T10:40:22;18.50;;;3.75;;
23078;SDS011;11707;50.830;4.364;2023-02-01T10:42:49;11.25;;;3.05;;
23078;SDS011;11707;50.830;4.364;2023-02-01T10:45:19;15.50;;;3.17;;
23078;SDS011;11707;50.830;4.364;2023-02-01T10:47:48;13.02;;;2.83;;
23078;SDS011;11707;50.830;4.364;2023-02-01T10:52:55;13.52;;;3.58;;
23078;SDS011;11707;50.830;4.364;2023-02-01T10:58:02;15.18;;;2.97;;
23078;SDS011;11707;50.830;4.364;2023-02-01T11:06:26;12.95;;;2.50;;
23078;SDS011;11707;50.830;4.364;2023-02-01T11:11:25;13.25;;;3.22;;
23078;SDS011;11707;50.830;4.364;2023-02-01T11:13:53;14.10;;;2.53;;
23078;SDS011;11707;50.830;4.364;2023-02-01T11:19:19;12.27;;;3.10;;
23078;SDS011;11707;50.830;4.364;2023-02-01T11:21:48;10.63;;;2.72;;
23078;SDS011;11707;50.830;4.364;2023-02-01T11:24:26;14.95;;;3.63;;
23078;SDS011;11707;50.830;4.364;2023-02-01T11:27:04;7.38;;;2.72;;
23078;SDS011;11707;50.830;4.364;2023-02-01T11:29:38;14.05;;;2.88;;
23078;SDS011;11707;50.830;4.364;2023-02-01T11:32:07;12.35;;;2.60;;
23078;SDS011;11707;50.830;4.364;2023-02-01T11:37:13;18.80;;;3.60;;
23078;SDS011;11707;50.830;4.364;2023-02-01T11:40:09;9.10;;;1.65;;
23078;SDS011;11707;50.830;4.364;2023-02-01T11:42:59;10.70;;;2.50;;
23078;SDS011;11707;50.830;4.364;2023-02-01T11:45:32;15.27;;;3.65;;
23078;SDS011;11707;50.830;4.364;2023-02-01T11:48:00;13.32;;;2.90;;
23078;SDS011;11707;50.830;4.364;2023-02-01T11:53:08;10.35;;;2.35;;
23078;SDS011;11707;50.830;4.364;2023-02-01T12:14:25;14.35;;;2.97;;
23078;SDS011;11707;50.830;4.364;2023-02-01T12:22:44;13.45;;;2.22;;
23078;SDS011;11707;50.830;4.364;2023-02-01T12:31:01;9.27;;;2.50;;
23078;SDS011;11707;50.830;4.364;2023-02-01T12:44:52;3.92;;;1.23;;
23078;SDS011;11707;50.830;4.364;2023-02-01T12:47:29;13.25;;;2.08;;
23078;SDS011;11707;50.830;4.364;2023-02-01T12:52:51;9.32;;;2.10;;
23078;SDS011;11707;50.830;4.364;2023-02-01T12:58:09;7.28;;;1.70;;
23078;SDS011;11707;50.830;4.364;2023-02-01T13:00:40;20.60;;;2.42;;
23078;SDS011;11707;50.830;4.364;2023-02-01T13:03:31;10.32;;;2.53;;
23078;SDS011;11707;50.830;4.364;2023-02-01T13:06:12;15.20;;;2.35;;
23078;SDS011;11707;50.830;4.364;2023-02-01T13:11:36;6.18;;;1.70;;
23078;SDS011;11707;50.830;4.364;2023-02-01T13:17:10;7.85;;;1.83;;
23078;SDS011;11707;50.830;4.364;2023-02-01T13:21:01;6.50;;;2.00;;
23078;SDS011;11707;50.830;4.364;2023-02-01T13:23:05;6.82;;;1.52;;
23078;SDS011;11707;50.830;4.364;2023-02-01T13:25:44;7.43;;;2.55;;
23078;SDS011;11707;50.830;4.364;2023-02-01T13:28:25;6.50;;;1.80;;
23078;SDS011;11707;50.830;4.364;2023-02-01T13:37:09;6.10;;;1.33;;
23078;SDS011;11707;50.830;4.364;2023-02-01T13:42:58;4.35;;;1.15;;
23078;SDS011;11707;50.830;4.364;2023-02-01T13:45:31;5.80;;;1.45;;
23078;SDS011;11707;50.830;4.364;2023-02-01T13:48:03;6.70;;;1.35;;
23078;SDS011;11707;50.830;4.364;2023-02-01T13:50:31;8.68;;;1.85;;
23078;SDS011;11707;50.830;4.364;2023-02-01T13:53:14;6.22;;;1.67;;
23078;SDS011;11707;50.830;4.364;2023-02-01T13:55:44;8.40;;;2.28;;
23078;SDS011;11707;50.830;4.364;2023-02-01T14:00:45;4.57;;;1.25;;
23078;SDS011;11707;50.830;4.364;2023-02-01T14:03:16;15.00;;;2.58;;
23078;SDS011;11707;50.830;4.364;2023-02-01T14:08:12;10.20;;;1.70;;
23078;SDS011;11707;50.830;4.364;2023-02-01T14:13:32;6.78;;;1.88;;
23078;SDS011;11707;50.830;4.364;2023-02-01T14:21:15;10.57;;;2.53;;
23078;SDS011;11707;50.830;4.364;2023-02-01T14:23:59;12.63;;;2.28;;
23078;SDS011;11707;50.830;4.364;2023-02-01T14:28:54;7.60;;;1.63;;
23078;SDS011;11707;50.830;4.364;2023-02-01T14:37:01;7.47;;;1.50;;
23078;SDS011;11707;50.830;4.364;2023-02-01T14:44:49;9.13;;;1.95;;
23078;SDS011;11707;50.830;4.364;2023-02-01T14:52:33;9.60;;;2.00;;
23078;SDS011;11707;50.830;4.364;2023-02-01T14:55:59;9.02;;;1.95;;
23078;SDS011;11707;50.830;4.364;2023-02-01T15:01:18;8.15;;;1.90;;
23078;SDS011;11707;50.830;4.364;2023-02-01T15:09:19;7.05;;;2.38;;
23078;SDS011;11707;50.830;4.364;2023-02-01T15:11:58;14.77;;;3.92;;
23078;SDS011;11707;50.830;4.364;2023-02-01T15:14:26;8.77;;;1.83;;
23078;SDS011;11707;50.830;4.364;2023-02-01T15:16:54;11.73;;;2.80;;
23078;SDS011;11707;50.830;4.364;2023-02-01T15:19:20;5.45;;;1.42;;
23078;SDS011;11707;50.830;4.364;2023-02-01T15:21:49;15.32;;;2.67;;
23078;SDS011;11707;50.830;4.364;2023-02-01T15:24:21;6.63;;;1.88;;
23078;SDS011;11707;50.830;4.364;2023-02-01T15:26:54;11.73;;;2.13;;
23078;SDS011;11707;50.830;4.364;2023-02-01T15:29:22;12.93;;;2.80;;
23078;SDS011;11707;50.830;4.364;2023-02-01T15:31:52;8.45;;;2.67;;
23078;SDS011;11707;50.830;4.364;2023-02-01T15:34:19;10.95;;;2.63;;
23078;SDS011;11707;50.830;4.364;2023-02-01T15:36:45;9.80;;;1.92;;
23078;SDS011;11707;50.830;4.364;2023-02-01T15:41:56;16.50;;;3.40;;
23078;SDS011;11707;50.830;4.364;2023-02-01T15:44:39;13.05;;;2.95;;
23078;SDS011;11707;50.830;4.364;2023-02-01T15:47:10;16.45;;;3.25;;
23078;SDS011;11707;50.830;4.364;2023-02-01T15:49:44;9.00;;;2.45;;
23078;SDS011;11707;50.830;4.364;2023-02-01T15:54:57;13.70;;;2.17;;
23078;SDS011;11707;50.830;4.364;2023-02-01T15:57:29;11.55;;;2.58;;
23078;SDS011;11707;50.830;4.364;2023-02-01T16:02:53;13.20;;;2.65;;
23078;SDS011;11707;50.830;4.364;2023-02-01T16:05:29;12.88;;;3.00;;
23078;SDS011;11707;50.830;4.364;2023-02-01T16:08:12;13.05;;;3.05;;
23078;SDS011;11707;50.830;4.364;2023-02-01T16:10:48;9.35;;;2.58;;
23078;SDS011;11707;50.830;4.364;2023-02-01T16:13:16;14.25;;;3.35;;
23078;SDS011;11707;50.830;4.364;2023-02-01T16:15:43;6.22;;;2.47;;
23078;SDS011;11707;50.830;4.364;2023-02-01T16:18:10;17.95;;;2.95;;
23078;SDS011;11707;50.830;4.364;2023-02-01T16:20:37;14.07;;;4.50;;
23078;SDS011;11707;50.830;4.364;2023-02-01T16:23:05;14.90;;;3.67;;
23078;SDS011;11707;50.830;4.364;2023-02-01T16:25:32;15.82;;;3.08;;
23078;SDS011;11707;50.830;4.364;2023-02-01T16:27:59;16.98;;;3.50;;
23078;SDS011;11707;50.830;4.364;2023-02-01T16:30:24;8.15;;;3.05;;
23078;SDS011;11707;50.830;4.364;2023-02-01T16:32:54;16.35;;;3.67;;
23078;SDS011;11707;50.830;4.364;2023-02-01T16:35:23;11.50;;;2.90;;
23078;SDS011;11707;50.830;4.364;2023-02-01T16:37:49;17.60;;;3.35;;
23078;SDS011;11707;50.830;4.364;2023-02-01T16:40:15;12.18;;;3.63;;
23078;SDS011;11707;50.830;4.364;2023-02-01T16:42:43;14.38;;;3.53;;
23078;SDS011;11707;50.830;4.364;2023-02-01T16:45:11;13.32;;;2.97;;
23078;SDS011;11707;50.830;4.364;2023-02-01T16:47:37;16.73;;;2.75;;
23078;SDS011;11707;50.830;4.364;2023-02-01T16:50:05;14.60;;;2.97;;
23078;SDS011;11707;50.830;4.364;2023-02-01T16:52:43;13.43;;;3.20;;
23078;SDS011;11707;50.830;4.364;2023-02-01T16:55:16;11.43;;;2.55;;
23078;SDS011;11707;50.830;4.364;2023-02-01T16:57:44;10.52;;;3.25;;
23078;SDS011;11707;50.830;4.364;2023-02-01T17:00:11;18.05;;;4.63;;
23078;SDS011;11707;50.830;4.364;2023-02-01T17:02:38;15.68;;;5.35;;
23078;SDS011;11707;50.830;4.364;2023-02-01T17:05:04;9.77;;;3.33;;
23078;SDS011;11707;50.830;4.364;2023-02-01T17:07:31;8.13;;;2.75;;
23078;SDS011;11707;50.830;4.364;2023-02-01T17:09:56;16.58;;;3.92;;
23078;SDS011;11707;50.830;4.364;2023-02-01T17:12:26;18.85;;;4.70;;
23078;SDS011;11707;50.830;4.364;2023-02-01T17:14:54;17.40;;;3.20;;
23078;SDS011;11707;50.830;4.364;2023-02-01T17:17:22;15.38;;;3.33;;
23078;SDS011;11707;50.830;4.364;2023-02-01T17:19:50;13.88;;;3.15;;
23078;SDS011;11707;50.830;4.364;2023-02-01T17:22:18;17.95;;;3.58;;
23078;SDS011;11707;50.830;4.364;2023-02-01T17:24:45;16.23;;;3.42;;
23078;SDS011;11707;50.830;4.364;2023-02-01T17:27:11;10.40;;;3.13;;
23078;SDS011;11707;50.830;4.364;2023-02-01T17:29:37;16.52;;;3.58;;
23078;SDS011;11707;50.830;4.364;2023-02-01T17:32:03;16.77;;;4.10;;
23078;SDS011;11707;50.830;4.364;2023-02-01T17:34:29;24.42;;;4.15;;
23078;SDS011;11707;50.830;4.364;2023-02-01T17:36:55;17.88;;;5.82;;
23078;SDS011;11707;50.830;4.364;2023-02-01T17:39:21;15.82;;;4.03;;
23078;SDS011;11707;50.830;4.364;2023-02-01T17:42:07;11.10;;;3.83;;
23078;SDS011;11707;50.830;4.364;2023-02-01T17:44:35;12.65;;;3.47;;
23078;SDS011;11707;50.830;4.364;2023-02-01T17:47:01;17.90;;;3.38;;
23078;SDS011;11707;50.830;4.364;2023-02-01T17:49:27;15.80;;;4.00;;
23078;SDS011;11707;50.830;4.364;2023-02-01T17:51:54;20.55;;;4.93;;
23078;SDS011;11707;50.830;4.364;2023-02-01T17:54:21;16.70;;;3.45;;
23078;SDS011;11707;50.830;4.364;2023-02-01T17:56:47;15.25;;;4.18;;
23078;SDS011;11707;50.830;4.364;2023-02-01T17:59:14;13.18;;;3.90;;
23078;SDS011;11707;50.830;4.364;2023-02-01T18:01:40;15.40;;;4.22;;
23078;SDS011;11707;50.830;4.364;2023-02-01T18:04:10;15.88;;;3.78;;
23078;SDS011;11707;50.830;4.364;2023-02-01T18:06:43;14.13;;;3.08;;
23078;SDS011;11707;50.830;4.364;2023-02-01T18:09:09;16.48;;;3.55;;
23078;SDS011;11707;50.830;4.364;2023-02-01T18:11:35;14.40;;;4.65;;
23078;SDS011;11707;50.830;4.364;2023-02-01T18:14:01;22.65;;;4.05;;
23078;SDS011;11707;50.830;4.364;2023-02-01T18:16:28;15.18;;;4.03;;
23078;SDS011;11707;50.830;4.364;2023-02-01T18:18:56;15.60;;;5.43;;
23078;SDS011;11707;50.830;4.364;2023-02-01T18:21:25;17.50;;;4.20;;
23078;SDS011;11707;50.830;4.364;2023-02-01T18:23:56;16.88;;;5.65;;
23078;SDS011;11707;50.830;4.364;2023-02-01T18:26:23;17.27;;;4.03;;
23078;SDS011;11707;50.830;4.364;2023-02-01T18:28:48;15.93;;;4.72;;